Time;durP1;ratioP1;P1;durP2;ratioP2;P2;SDS_P1;SDS_P2;PMS_P1;PMS_P2;Temp;Humidity;BMP_temperature;BMP_pressure;BME280_temperature;BME280_humidity;BME280_pressure;Samples;Min_cycle;Max_cycle;Signal;HPM_P1;HPM_P2
2021/11/16 00:01:11;;;;;;;9.80;1.50;;;;;;;;;;4997917;28;20060;-45
2021/11/16 00:03:39;;;;;;;9.80;1.60;;;;;;;;;;5024560;28;20026;-41
2021/11/16 00:06:07;;;;;;;17.48;1.65;;;;;;;;;;4995572;28;20029;-41
2021/11/16 00:08:35;;;;;;;10.82;1.20;;;;;;;;;;4999275;28;20038;-39
2021/11/16 00:11:03;;;;;;;14.77;1.90;;;;;;;;;;5001899;28;20084;-41
2021/11/16 00:13:30;;;;;;;13.63;1.63;;;;;;;;;;5025175;28;20025;-43
2021/11/16 00:15:57;;;;;;;11.15;1.58;;;;;;;;;;5023387;28;20047;-43
2021/11/16 00:18:28;;;;;;;14.25;1.38;;;;;;;;;;5028763;28;20037;-43
2021/11/16 00:20:55;;;;;;;10.68;1.63;;;;;;;;;;5024750;28;20032;-44
2021/11/16 00:23:24;;;;;;;10.07;2.08;;;;;;;;;;5025972;28;20148;-44
2021/11/16 00:25:55;;;;;;;11.45;1.52;;;;;;;;;;5024071;28;20029;-42
2021/11/16 00:28:23;;;;;;;13.93;2.30;;;;;;;;;;5026167;28;20034;-43
2021/11/16 00:30:50;;;;;;;30.98;4.40;;;;;;;;;;5018598;28;20561;-45
2021/11/16 00:33:20;;;;;;;21.08;4.50;;;;;;;;;;5023455;28;20112;-45
2021/11/16 00:35:47;;;;;;;39.30;7.68;;;;;;;;;;5026753;28;20091;-45
2021/11/16 00:38:15;;;;;;;64.63;16.27;;;;;;;;;;5023851;28;20021;-47
2021/11/16 00:40:42;;;;;;;67.10;16.73;;;;;;;;;;5025200;28;20025;-44
2021/11/16 00:43:10;;;;;;;94.72;23.95;;;;;;;;;;5022511;28;20075;-46
2021/11/16 00:45:38;;;;;;;86.18;21.08;;;;;;;;;;5025449;28;20025;-44
2021/11/16 00:48:05;;;;;;;70.22;21.95;;;;;;;;;;5020148;28;20555;-42
2021/11/16 00:50:33;;;;;;;78.85;22.83;;;;;;;;;;5022575;28;20041;-44
2021/11/16 00:53:00;;;;;;;80.72;20.40;;;;;;;;;;5023337;28;20032;-44
2021/11/16 00:55:27;;;;;;;65.57;19.00;;;;;;;;;;5025270;28;20025;-43
2021/11/16 00:57:54;;;;;;;63.08;17.00;;;;;;;;;;5020111;28;20376;-43
2021/11/16 01:00:21;;;;;;;64.38;16.27;;;;;;;;;;5017382;28;20415;-44
2021/11/16 01:02:48;;;;;;;52.45;14.40;;;;;;;;;;5026175;28;20432;-43
2021/11/16 01:05:15;;;;;;;46.65;12.93;;;;;;;;;;5027583;28;20500;-41
2021/11/16 01:07:43;;;;;;;52.20;13.90;;;;;;;;;;5026113;28;20033;-41
2021/11/16 01:10:11;;;;;;;46.25;13.60;;;;;;;;;;5027827;28;20032;-42
2021/11/16 01:12:39;;;;;;;43.17;13.00;;;;;;;;;;5009442;28;20038;-44
2021/11/16 01:15:07;;;;;;;45.63;12.90;;;;;;;;;;5016962;28;20021;-42
2021/11/16 01:17:34;;;;;;;41.75;12.10;;;;;;;;;;5031626;28;20032;-43
2021/11/16 01:20:01;;;;;;;46.17;11.88;;;;;;;;;;5031668;28;20022;-43
2021/11/16 01:22:29;;;;;;;37.90;11.02;;;;;;;;;;5025437;28;20405;-42
2021/11/16 01:24:56;;;;;;;36.47;10.90;;;;;;;;;;5030732;28;20041;-43
2021/11/16 01:27:25;;;;;;;35.20;11.18;;;;;;;;;;5030238;28;20108;-43
2021/11/16 01:29:54;;;;;;;34.13;10.02;;;;;;;;;;5030404;28;20033;-41
2021/11/16 01:32:32;;;;;;;36.65;9.93;;;;;;;;;;5029954;28;20065;-43
2021/11/16 01:34:59;;;;;;;38.53;10.60;;;;;;;;;;5031338;28;20052;-43
2021/11/16 01:37:26;;;;;;;32.38;9.82;;;;;;;;;;5030325;28;20075;-44
2021/11/16 01:39:54;;;;;;;33.13;10.05;;;;;;;;;;5031061;28;20083;-43
2021/11/16 01:42:21;;;;;;;28.27;9.23;;;;;;;;;;5030244;28;20539;-42
2021/11/16 01:44:48;;;;;;;31.80;9.45;;;;;;;;;;5031096;28;20080;-43
2021/11/16 01:47:15;;;;;;;31.88;9.05;;;;;;;;;;5030534;28;20029;-43
2021/11/16 01:49:43;;;;;;;28.70;8.82;;;;;;;;;;5029883;28;20052;-42
2021/11/16 01:52:10;;;;;;;32.38;8.95;;;;;;;;;;5031843;28;20017;-44
2021/11/16 01:54:38;;;;;;;30.40;8.00;;;;;;;;;;5031279;28;20105;-43
2021/11/16 01:57:05;;;;;;;27.40;8.05;;;;;;;;;;5031336;28;20500;-42
2021/11/16 01:59:32;;;;;;;28.08;7.55;;;;;;;;;;5030790;28;20062;-42
2021/11/16 02:02:01;;;;;;;27.60;8.10;;;;;;;;;;5031481;28;20017;-43
2021/11/16 02:04:28;;;;;;;27.73;8.00;;;;;;;;;;5031041;28;20412;-43
2021/11/16 02:06:55;;;;;;;24.70;7.82;;;;;;;;;;5031786;28;20488;-42
2021/11/16 02:09:22;;;;;;;28.77;7.70;;;;;;;;;;5030698;28;20065;-42
2021/11/16 02:11:49;;;;;;;19.23;7.15;;;;;;;;;;5031507;28;20469;-42
2021/11/16 02:14:18;;;;;;;28.00;7.35;;;;;;;;;;5031027;28;20025;-42
2021/11/16 02:16:45;;;;;;;24.45;7.13;;;;;;;;;;5031452;28;20026;-43
2021/11/16 02:19:14;;;;;;;22.60;7.15;;;;;;;;;;5030613;28;20021;-41
2021/11/16 02:21:41;;;;;;;29.73;7.53;;;;;;;;;;5031454;28;20029;-41
2021/11/16 02:24:08;;;;;;;20.35;7.18;;;;;;;;;;5030991;28;20091;-42
2021/11/16 02:26:36;;;;;;;29.17;7.32;;;;;;;;;;5030793;28;20025;-42
2021/11/16 02:29:04;;;;;;;25.83;7.10;;;;;;;;;;5012451;28;20030;-42
2021/11/16 02:31:31;;;;;;;27.33;7.55;;;;;;;;;;5029956;28;20483;-42
2021/11/16 02:33:58;;;;;;;21.65;6.70;;;;;;;;;;5031054;28;20040;-44
2021/11/16 02:36:30;;;;;;;20.17;6.15;;;;;;;;;;5030136;28;20036;-44
2021/11/16 02:38:58;;;;;;;23.52;5.97;;;;;;;;;;5030404;28;20131;-41
2021/11/16 02:41:31;;;;;;;16.92;6.30;;;;;;;;;;5030034;28;20034;-41
2021/11/16 02:43:59;;;;;;;19.60;6.07;;;;;;;;;;5032517;28;20057;-42
2021/11/16 02:46:27;;;;;;;19.42;6.60;;;;;;;;;;5034016;28;20030;-43
2021/11/16 02:48:54;;;;;;;22.88;5.82;;;;;;;;;;5035161;28;20366;-44
2021/11/16 02:51:21;;;;;;;16.38;5.53;;;;;;;;;;5034437;28;20057;-41
2021/11/16 02:53:49;;;;;;;17.73;5.57;;;;;;;;;;5035084;28;20381;-41
2021/11/16 02:56:16;;;;;;;20.52;5.28;;;;;;;;;;5034565;28;20056;-43
2021/11/16 02:58:43;;;;;;;18.48;5.57;;;;;;;;;;5034537;28;20041;-42
2021/11/16 03:01:12;;;;;;;19.00;5.30;;;;;;;;;;5016611;28;20022;-41
2021/11/16 03:03:39;;;;;;;20.63;4.85;;;;;;;;;;5035206;28;20093;-41
2021/11/16 03:06:07;;;;;;;22.38;5.10;;;;;;;;;;5034321;28;20048;-44
2021/11/16 03:08:35;;;;;;;19.92;4.93;;;;;;;;;;5034666;28;20044;-43
2021/11/16 03:11:06;;;;;;;13.77;5.35;;;;;;;;;;5034710;28;20022;-42
2021/11/16 03:13:36;;;;;;;12.00;4.57;;;;;;;;;;5034254;28;20550;-44
2021/11/16 03:16:11;;;;;;;16.60;5.15;;;;;;;;;;5034589;28;20033;-43
2021/11/16 03:18:40;;;;;;;18.08;4.57;;;;;;;;;;5034207;28;20068;-44
2021/11/16 03:21:11;;;;;;;13.18;4.05;;;;;;;;;;5034380;28;20098;-41
2021/11/16 03:23:38;;;;;;;12.30;4.57;;;;;;;;;;5034111;28;20500;-44
2021/11/16 03:26:05;;;;;;;15.38;5.15;;;;;;;;;;5034471;28;20029;-44
2021/11/16 03:28:34;;;;;;;13.20;4.45;;;;;;;;;;5033952;28;20042;-41
2021/11/16 03:31:09;;;;;;;13.30;4.07;;;;;;;;;;5034342;28;20017;-41
2021/11/16 03:33:37;;;;;;;12.98;3.88;;;;;;;;;;5033636;28;20388;-42
2021/11/16 03:36:05;;;;;;;16.23;3.78;;;;;;;;;;5034503;28;20032;-43
2021/11/16 03:38:32;;;;;;;14.60;3.88;;;;;;;;;;5033922;28;20041;-42
2021/11/16 03:41:00;;;;;;;12.77;3.78;;;;;;;;;;5034120;28;20021;-42
2021/11/16 03:43:27;;;;;;;9.10;3.72;;;;;;;;;;5033506;28;20560;-42
2021/11/16 03:45:57;;;;;;;10.70;3.70;;;;;;;;;;5034017;28;20041;-45
2021/11/16 03:48:24;;;;;;;13.10;4.40;;;;;;;;;;5033514;28;20616;-42
2021/11/16 03:50:51;;;;;;;12.43;3.70;;;;;;;;;;5033740;28;20029;-45
2021/11/16 03:53:18;;;;;;;12.30;3.65;;;;;;;;;;5016013;28;20052;-41
2021/11/16 03:55:45;;;;;;;9.05;3.15;;;;;;;;;;5033483;28;20479;-43
2021/11/16 03:58:15;;;;;;;9.43;3.42;;;;;;;;;;5033338;28;20068;-43
2021/11/16 04:00:59;;;;;;;8.30;3.33;;;;;;;;;;5033530;28;20032;-42
2021/11/16 04:03:27;;;;;;;10.55;3.50;;;;;;;;;;5033289;28;20029;-42
2021/11/16 04:05:56;;;;;;;10.25;3.25;;;;;;;;;;5033933;28;20029;-43
2021/11/16 04:08:23;;;;;;;12.10;3.15;;;;;;;;;;5033199;28;20501;-42
2021/11/16 04:10:51;;;;;;;11.63;3.47;;;;;;;;;;5033541;28;20032;-44
2021/11/16 04:13:18;;;;;;;9.02;3.35;;;;;;;;;;5033539;28;20029;-44
2021/11/16 04:15:47;;;;;;;9.95;3.30;;;;;;;;;;5033156;28;20079;-43
2021/11/16 04:18:14;;;;;;;10.02;3.03;;;;;;;;;;5033554;28;20021;-43
2021/11/16 04:20:42;;;;;;;7.75;2.60;;;;;;;;;;5033099;28;20067;-44
2021/11/16 04:23:11;;;;;;;7.82;3.00;;;;;;;;;;5210036;22;20060;-44
2021/11/16 04:25:38;;;;;;;9.77;3.20;;;;;;;;;;5067713;28;20025;-43
2021/11/16 04:28:09;;;;;;;10.88;3.10;;;;;;;;;;5053150;28;20393;-46
2021/11/16 04:30:36;;;;;;;6.72;2.90;;;;;;;;;;5052542;28;20025;-44
2021/11/16 04:33:03;;;;;;;10.05;2.90;;;;;;;;;;5068544;28;20025;-45
2021/11/16 04:35:30;;;;;;;7.72;2.88;;;;;;;;;;5052502;28;20543;-42
2021/11/16 04:37:59;;;;;;;7.40;2.67;;;;;;;;;;5053113;28;20029;-44
2021/11/16 04:40:33;;;;;;;7.85;2.83;;;;;;;;;;5052596;28;20033;-44
2021/11/16 04:43:04;;;;;;;6.57;2.65;;;;;;;;;;5052887;28;20111;-43
2021/11/16 04:45:32;;;;;;;7.57;2.33;;;;;;;;;;5052475;28;20025;-44
2021/11/16 04:48:06;;;;;;;8.13;2.60;;;;;;;;;;5052515;28;20113;-46
2021/11/16 05:04:15;;;;;;;8.32;2.90;;;;;;;;;;5052555;28;20036;-42
2021/11/16 05:06:44;;;;;;;7.05;2.17;;;;;;;;;;5051603;28;20060;-43
2021/11/16 05:09:11;;;;;;;6.70;2.42;;;;;;;;;;5051950;28;20040;-42
2021/11/16 05:11:38;;;;;;;6.45;2.80;;;;;;;;;;5052494;28;20021;-42
2021/11/16 05:14:05;;;;;;;4.88;1.85;;;;;;;;;;5052114;28;20036;-43
2021/11/16 05:16:32;;;;;;;5.50;2.20;;;;;;;;;;5052356;28;20778;-42
2021/11/16 05:18:59;;;;;;;7.75;2.30;;;;;;;;;;5051959;28;20054;-43
2021/11/16 05:21:26;;;;;;;5.32;2.10;;;;;;;;;;5052004;28;20024;-43
2021/11/16 05:23:55;;;;;;;5.13;2.03;;;;;;;;;;5051439;28;20122;-43
2021/11/16 05:26:23;;;;;;;4.63;1.90;;;;;;;;;;5052175;28;20029;-44
2021/11/16 05:28:50;;;;;;;4.28;1.48;;;;;;;;;;5051615;28;20032;-45
2021/11/16 05:31:17;;;;;;;4.50;2.10;;;;;;;;;;5051988;28;20032;-45
2021/11/16 05:33:47;;;;;;;4.65;2.10;;;;;;;;;;5051768;28;20188;-42
2021/11/16 05:36:16;;;;;;;4.53;1.90;;;;;;;;;;5051876;28;20027;-44
2021/11/16 05:38:43;;;;;;;5.35;1.85;;;;;;;;;;5051925;28;20032;-45
2021/11/16 05:41:10;;;;;;;4.68;1.60;;;;;;;;;;5051676;28;20108;-44
2021/11/16 05:43:37;;;;;;;6.80;1.70;;;;;;;;;;5051865;28;20053;-43
2021/11/16 05:46:04;;;;;;;4.68;1.60;;;;;;;;;;5051471;28;20027;-45
2021/11/16 05:48:35;;;;;;;4.68;1.67;;;;;;;;;;5044102;28;20046;-44
2021/11/16 05:51:02;;;;;;;5.78;1.83;;;;;;;;;;5029110;28;20508;-43
2021/11/16 05:53:30;;;;;;;4.10;1.70;;;;;;;;;;5031221;28;20025;-45
2021/11/16 05:55:57;;;;;;;3.28;1.17;;;;;;;;;;5031373;28;20025;-47
2021/11/16 05:58:25;;;;;;;5.72;1.85;;;;;;;;;;5031715;28;20128;-43
2021/11/16 06:00:52;;;;;;;3.53;1.52;;;;;;;;;;5031420;28;20013;-43
2021/11/16 06:03:19;;;;;;;4.03;1.67;;;;;;;;;;5031566;28;20374;-44
2021/11/16 06:05:46;;;;;;;5.97;1.60;;;;;;;;;;5031413;28;20068;-43
2021/11/16 06:08:21;;;;;;;2.85;1.40;;;;;;;;;;5031569;28;20033;-44
2021/11/16 06:10:48;;;;;;;3.47;1.58;;;;;;;;;;5031720;28;20477;-41
2021/11/16 06:13:15;;;;;;;4.65;1.60;;;;;;;;;;5031236;28;20030;-43
2021/11/16 06:15:42;;;;;;;3.47;1.70;;;;;;;;;;5032089;28;20021;-44
2021/11/16 06:18:09;;;;;;;4.32;1.50;;;;;;;;;;5031740;28;20531;-46
2021/11/16 06:20:38;;;;;;;3.70;1.50;;;;;;;;;;5035810;28;20157;-43
2021/11/16 06:23:06;;;;;;;1.98;1.20;;;;;;;;;;5034769;28;20046;-43
2021/11/16 06:25:33;;;;;;;4.63;1.75;;;;;;;;;;5035748;28;20500;-43
2021/11/16 06:28:00;;;;;;;4.15;1.70;;;;;;;;;;5033880;28;20033;-43
2021/11/16 06:30:28;;;;;;;2.65;1.15;;;;;;;;;;5035508;28;20148;-43
2021/11/16 06:32:55;;;;;;;4.75;1.63;;;;;;;;;;5034707;28;20026;-45
2021/11/16 06:35:22;;;;;;;3.78;1.40;;;;;;;;;;5035560;28;20017;-44
2021/11/16 06:37:50;;;;;;;3.05;1.33;;;;;;;;;;5035082;28;20025;-43
2021/11/16 06:40:17;;;;;;;2.45;1.00;;;;;;;;;;5035323;28;20370;-44
2021/11/16 06:42:45;;;;;;;2.63;1.25;;;;;;;;;;5034631;28;20041;-43
2021/11/16 06:45:12;;;;;;;3.20;1.38;;;;;;;;;;5035414;28;20029;-46
2021/11/16 06:47:39;;;;;;;5.45;1.25;;;;;;;;;;5034786;28;20022;-42
2021/11/16 06:50:06;;;;;;;2.60;1.20;;;;;;;;;;5034882;28;20029;-43
2021/11/16 06:52:35;;;;;;;2.45;0.88;;;;;;;;;;5035198;28;20083;-43
2021/11/16 06:55:04;;;;;;;2.42;1.10;;;;;;;;;;5034507;28;20489;-42
2021/11/16 06:57:33;;;;;;;2.50;1.10;;;;;;;;;;5034915;28;20381;-43
2021/11/16 07:00:00;;;;;;;3.70;1.40;;;;;;;;;;5034654;28;20025;-43
2021/11/16 07:02:28;;;;;;;1.80;0.90;;;;;;;;;;5034883;28;20083;-42
2021/11/16 07:04:55;;;;;;;2.53;1.10;;;;;;;;;;5034271;28;20622;-44
2021/11/16 07:07:22;;;;;;;4.32;1.20;;;;;;;;;;5035110;28;20043;-43
2021/11/16 07:09:49;;;;;;;4.75;1.50;;;;;;;;;;5034493;28;20041;-43
2021/11/16 07:12:24;;;;;;;2.95;1.05;;;;;;;;;;5034715;28;20028;-44
2021/11/16 07:14:51;;;;;;;3.75;1.10;;;;;;;;;;5034082;28;20040;-45
2021/11/16 07:17:19;;;;;;;3.13;1.40;;;;;;;;;;5034973;28;20060;-42
2021/11/16 07:19:46;;;;;;;2.92;1.20;;;;;;;;;;5034339;28;20022;-45
2021/11/16 07:22:21;;;;;;;2.15;0.90;;;;;;;;;;5032880;28;20022;-43
2021/11/16 07:25:08;;;;;;;1.77;0.90;;;;;;;;;;5034128;28;20061;-45
2021/11/16 07:27:42;;;;;;;2.90;1.05;;;;;;;;;;5034198;28;20029;-42
2021/11/16 07:30:10;;;;;;;2.85;1.02;;;;;;;;;;5033276;28;20055;-44
2021/11/16 07:32:48;;;;;;;2.47;0.90;;;;;;;;;;5034300;28;20419;-44
2021/11/16 07:35:16;;;;;;;1.70;0.90;;;;;;;;;;5033762;28;20108;-42
2021/11/16 07:37:44;;;;;;;1.75;1.10;;;;;;;;;;5034348;28;20048;-44
2021/11/16 07:40:16;;;;;;;3.20;0.93;;;;;;;;;;5034363;28;20029;-43
2021/11/16 07:42:49;;;;;;;1.70;0.90;;;;;;;;;;5033837;28;20483;-43
2021/11/16 07:45:18;;;;;;;1.27;0.75;;;;;;;;;;5034105;28;20078;-44
2021/11/16 07:47:47;;;;;;;1.75;1.08;;;;;;;;;;5033594;28;20075;-43
2021/11/16 07:50:30;;;;;;;2.60;0.98;;;;;;;;;;5034102;28;20041;-44
2021/11/16 07:53:09;;;;;;;2.25;0.90;;;;;;;;;;5033711;28;20022;-42
2021/11/16 07:55:36;;;;;;;1.38;0.65;;;;;;;;;;5033791;28;20057;-44
2021/11/16 07:58:08;;;;;;;2.20;0.90;;;;;;;;;;5033548;28;20063;-44
2021/11/16 08:00:38;;;;;;;1.80;0.70;;;;;;;;;;5033916;28;20021;-43
2021/11/16 08:03:17;;;;;;;2.22;0.70;;;;;;;;;;5033378;28;20048;-41
2021/11/16 08:05:58;;;;;;;1.45;0.80;;;;;;;;;;5033616;28;20066;-42
2021/11/16 08:11:32;;;;;;;2.15;0.77;;;;;;;;;;5033832;28;20381;-42
2021/11/16 08:14:01;;;;;;;2.20;0.90;;;;;;;;;;5033289;28;20049;-43
2021/11/16 08:16:30;;;;;;;3.30;0.98;;;;;;;;;;5033352;28;20032;-46
2021/11/16 08:19:11;;;;;;;1.80;0.80;;;;;;;;;;5033165;28;20017;-43
2021/11/16 08:21:45;;;;;;;2.35;0.80;;;;;;;;;;5033394;28;20079;-44
2021/11/16 08:24:14;;;;;;;2.80;0.88;;;;;;;;;;5031300;28;20103;-43
2021/11/16 08:26:42;;;;;;;2.47;0.90;;;;;;;;;;5033160;28;20060;-43
2021/11/16 08:29:11;;;;;;;2.72;0.93;;;;;;;;;;5032828;28;20044;-43
2021/11/16 08:31:49;;;;;;;1.33;0.60;;;;;;;;;;5033492;28;20496;-43
2021/11/16 08:34:18;;;;;;;2.58;0.90;;;;;;;;;;5032852;28;20021;-43
2021/11/16 08:36:47;;;;;;;2.00;0.88;;;;;;;;;;5033011;28;20559;-43
2021/11/16 08:39:14;;;;;;;2.20;0.93;;;;;;;;;;5031549;28;20036;-43
2021/11/16 08:41:42;;;;;;;2.33;0.80;;;;;;;;;;5033009;28;20385;-43
2021/11/16 08:44:19;;;;;;;1.52;0.70;;;;;;;;;;5033026;28;20025;-44
2021/11/16 08:46:47;;;;;;;1.15;0.60;;;;;;;;;;5032804;28;20014;-44
2021/11/16 08:49:24;;;;;;;1.50;0.50;;;;;;;;;;5032880;28;20033;-43
2021/11/16 08:51:52;;;;;;;1.85;0.60;;;;;;;;;;5032676;28;20022;-43
2021/11/16 08:54:30;;;;;;;2.20;0.70;;;;;;;;;;5032772;28;20037;-43
2021/11/16 08:57:00;;;;;;;2.42;0.50;;;;;;;;;;5032133;28;20148;-44
2021/11/16 08:59:27;;;;;;;2.35;0.73;;;;;;;;;;5032763;28;20022;-43
2021/11/16 09:02:05;;;;;;;2.65;0.73;;;;;;;;;;5032287;28;20026;-44
2021/11/16 09:04:33;;;;;;;1.48;0.60;;;;;;;;;;5032778;28;20044;-43
2021/11/16 09:07:01;;;;;;;0.85;0.70;;;;;;;;;;5031950;28;20507;-43
2021/11/16 09:09:30;;;;;;;1.77;0.60;;;;;;;;;;5032474;28;20429;-45
2021/11/16 09:12:04;;;;;;;0.98;0.60;;;;;;;;;;5032124;28;20030;-43
2021/11/16 09:14:33;;;;;;;1.30;0.60;;;;;;;;;;5032439;28;20026;-43
2021/11/16 09:17:17;;;;;;;1.40;0.50;;;;;;;;;;5031697;28;20017;-43
2021/11/16 09:19:44;;;;;;;1.40;0.60;;;;;;;;;;5032531;28;20021;-44
2021/11/16 09:22:16;;;;;;;2.05;0.70;;;;;;;;;;5031294;28;20014;-44
2021/11/16 09:24:45;;;;;;;2.08;0.60;;;;;;;;;;5032303;28;20041;-43
2021/11/16 09:27:34;;;;;;;2.53;0.50;;;;;;;;;;5031475;28;20083;-43
2021/11/16 09:29:59;;;;;;;1.58;0.60;;;;;;;;;;5032174;28;20033;-43
2021/11/16 09:32:28;;;;;;;1.25;0.47;;;;;;;;;;5031679;28;20037;-42
2021/11/16 09:34:59;;;;;;;1.55;0.70;;;;;;;;;;5032242;28;20079;-43
2021/11/16 09:37:27;;;;;;;0.80;0.57;;;;;;;;;;5031533;28;20025;-42
2021/11/16 09:39:59;;;;;;;0.90;0.50;;;;;;;;;;5031699;28;20456;-45
2021/11/16 09:42:30;;;;;;;0.67;0.37;;;;;;;;;;5029728;28;20607;-42
2021/11/16 09:45:04;;;;;;;0.55;0.40;;;;;;;;;;5030850;28;20025;-43
2021/11/16 09:47:32;;;;;;;1.23;0.60;;;;;;;;;;5030744;28;20020;-43
2021/11/16 09:50:10;;;;;;;1.65;0.60;;;;;;;;;;5030540;28;20053;-43
2021/11/16 09:52:40;;;;;;;1.42;0.70;;;;;;;;;;5030461;28;20396;-43
2021/11/16 09:55:21;;;;;;;1.75;0.60;;;;;;;;;;5030941;28;20033;-44
2021/11/16 09:57:58;;;;;;;2.25;0.63;;;;;;;;;;5031743;28;20547;-42
2021/11/16 10:00:28;;;;;;;4.03;0.75;;;;;;;;;;5030554;28;20041;-43
2021/11/16 10:03:08;;;;;;;1.77;0.90;;;;;;;;;;5030607;28;20021;-43
2021/11/16 10:05:40;;;;;;;2.72;0.70;;;;;;;;;;5030031;28;20040;-43
2021/11/16 10:08:07;;;;;;;3.05;0.77;;;;;;;;;;5031380;28;20029;-44
2021/11/16 10:10:39;;;;;;;1.80;0.57;;;;;;;;;;5030449;28;20033;-43
2021/11/16 10:13:07;;;;;;;3.80;0.75;;;;;;;;;;5031138;28;20018;-43
2021/11/16 10:15:36;;;;;;;4.38;1.00;;;;;;;;;;5027286;28;20040;-42
2021/11/16 10:18:03;;;;;;;4.07;0.80;;;;;;;;;;5023308;28;20021;-46
2021/11/16 10:20:32;;;;;;;2.33;0.70;;;;;;;;;;5028216;28;20033;-44
2021/11/16 10:23:00;;;;;;;2.22;0.63;;;;;;;;;;5029352;28;20041;-44
2021/11/16 10:25:29;;;;;;;2.15;0.77;;;;;;;;;;5026605;28;20120;-45
2021/11/16 10:27:59;;;;;;;4.32;0.73;;;;;;;;;;5028872;28;20036;-41
2021/11/16 10:30:30;;;;;;;4.78;0.90;;;;;;;;;;5029814;28;20036;-42
2021/11/16 10:33:07;;;;;;;3.08;0.95;;;;;;;;;;5028679;28;20389;-44
2021/11/16 10:35:34;;;;;;;3.13;0.90;;;;;;;;;;5029603;28;20389;-42
2021/11/16 10:38:04;;;;;;;1.73;0.60;;;;;;;;;;5024652;28;20110;-44
2021/11/16 10:40:31;;;;;;;3.47;0.90;;;;;;;;;;5029834;28;20067;-44
2021/11/16 10:42:59;;;;;;;16.33;1.50;;;;;;;;;;5025311;28;20108;-44
2021/11/16 10:45:28;;;;;;;3.63;0.95;;;;;;;;;;5030107;28;20033;-42
2021/11/16 10:48:02;;;;;;;10.50;1.52;;;;;;;;;;5029143;28;20021;-43
2021/11/16 10:50:30;;;;;;;8.23;1.77;;;;;;;;;;5022473;28;20034;-43
2021/11/16 10:52:59;;;;;;;17.33;1.38;;;;;;;;;;5029356;28;20025;-44
2021/11/16 10:55:39;;;;;;;14.23;1.33;;;;;;;;;;5030103;28;20025;-43
2021/11/16 10:58:08;;;;;;;20.88;2.42;;;;;;;;;;5026269;28;20469;-44
2021/11/16 11:00:36;;;;;;;11.75;1.75;;;;;;;;;;5023549;28;20024;-45
2021/11/16 11:03:21;;;;;;;11.30;1.52;;;;;;;;;;5028834;28;20102;-43
2021/11/16 11:05:50;;;;;;;17.92;2.13;;;;;;;;;;5031281;28;20381;-42
2021/11/16 11:08:49;;;;;;;14.93;1.55;;;;;;;;;;5031655;28;20386;-43
2021/11/16 11:11:18;;;;;;;11.57;1.50;;;;;;;;;;5000772;28;20042;-44
2021/11/16 11:13:49;;;;;;;12.98;1.50;;;;;;;;;;5023046;28;20053;-41
2021/11/16 11:16:17;;;;;;;61.78;6.97;;;;;;;;;;5025222;28;20100;-45
2021/11/16 11:18:48;;;;;;;71.68;6.15;;;;;;;;;;5032716;28;20380;-42
2021/11/16 11:21:26;;;;;;;40.92;4.97;;;;;;;;;;5033142;28;20373;-42
2021/11/16 11:23:59;;;;;;;34.40;4.72;;;;;;;;;;5030746;28;20046;-43
2021/11/16 11:26:34;;;;;;;25.83;3.25;;;;;;;;;;5033090;28;20496;-42
2021/11/16 11:29:18;;;;;;;22.40;2.80;;;;;;;;;;5031944;28;20041;-42
2021/11/16 11:31:47;;;;;;;26.15;2.47;;;;;;;;;;5032931;28;20046;-42
2021/11/16 11:34:14;;;;;;;13.60;2.45;;;;;;;;;;5032159;28;20025;-42
2021/11/16 11:36:41;;;;;;;20.55;2.63;;;;;;;;;;5032700;28;20393;-42
2021/11/16 11:39:20;;;;;;;11.13;2.58;;;;;;;;;;5030385;28;20096;-43
2021/11/16 11:41:57;;;;;;;17.08;2.42;;;;;;;;;;5031138;28;20432;-44
2021/11/16 11:44:26;;;;;;;20.10;2.25;;;;;;;;;;5032361;28;20022;-46
2021/11/16 11:46:55;;;;;;;15.75;2.08;;;;;;;;;;5032699;28;20038;-48
2021/11/16 11:49:22;;;;;;;26.52;3.30;;;;;;;;;;5032110;28;20037;-47
2021/11/16 11:51:50;;;;;;;89.40;7.65;;;;;;;;;;5032120;28;20061;-46
2021/11/16 11:54:18;;;;;;;33.10;2.85;;;;;;;;;;5032218;28;20428;-45
2021/11/16 11:56:45;;;;;;;20.73;3.13;;;;;;;;;;5031857;28;20055;-46
2021/11/16 11:59:13;;;;;;;28.23;4.22;;;;;;;;;;5032158;28;20032;-45
2021/11/16 12:01:41;;;;;;;33.92;3.38;;;;;;;;;;5024909;28;20018;-46
2021/11/16 12:04:10;;;;;;;41.30;5.50;;;;;;;;;;5032448;28;20025;-47
2021/11/16 12:06:39;;;;;;;40.92;5.40;;;;;;;;;;5030442;28;20108;-46
2021/11/16 12:09:06;;;;;;;51.05;6.15;;;;;;;;;;5019277;28;20033;-45
2021/11/16 12:11:34;;;;;;;44.97;5.72;;;;;;;;;;5018445;28;20024;-47
2021/11/16 12:14:04;;;;;;;37.15;4.15;;;;;;;;;;5028492;28;20116;-44
2021/11/16 12:16:31;;;;;;;29.35;3.70;;;;;;;;;;5031588;28;20029;-44
2021/11/16 12:19:09;;;;;;;71.57;6.53;;;;;;;;;;5027998;28;20480;-44
2021/11/16 12:21:37;;;;;;;42.92;4.53;;;;;;;;;;5021986;28;20493;-43
2021/11/16 12:24:08;;;;;;;52.30;5.13;;;;;;;;;;5018167;28;20072;-41
2021/11/16 12:26:37;;;;;;;37.83;6.15;;;;;;;;;;5035669;28;20027;-42
2021/11/16 12:29:24;;;;;;;101.30;17.88;;;;;;;;;;5022162;28;20079;-43
2021/11/16 12:31:52;;;;;;;50.33;8.52;;;;;;;;;;5031161;28;20090;-44
2021/11/16 12:34:41;;;;;;;42.05;7.20;;;;;;;;;;5027579;28;20030;-42
2021/11/16 12:37:09;;;;;;;45.65;6.05;;;;;;;;;;5020797;28;20029;-44
2021/11/16 12:39:53;;;;;;;29.25;5.93;;;;;;;;;;5018636;28;20037;-42
2021/11/16 12:42:20;;;;;;;37.03;6.28;;;;;;;;;;5029955;28;20381;-42
2021/11/16 12:44:50;;;;;;;32.22;5.63;;;;;;;;;;5015025;28;20029;-42
2021/11/16 12:47:17;;;;;;;33.22;5.20;;;;;;;;;;5023493;28;20034;-44
2021/11/16 12:49:45;;;;;;;26.02;4.38;;;;;;;;;;5021311;28;20454;-43
2021/11/16 12:52:14;;;;;;;26.35;4.95;;;;;;;;;;5022803;28;20052;-43
2021/11/16 12:54:42;;;;;;;23.95;3.95;;;;;;;;;;5015939;28;20033;-44
2021/11/16 12:57:29;;;;;;;30.08;4.13;;;;;;;;;;5026527;28;20021;-43
2021/11/16 12:59:56;;;;;;;23.17;4.47;;;;;;;;;;5022939;28;20029;-44
2021/11/16 13:02:24;;;;;;;28.25;3.75;;;;;;;;;;5026411;28;20474;-42
2021/11/16 13:04:55;;;;;;;18.02;3.60;;;;;;;;;;5026127;28;20048;-46
2021/11/16 13:07:30;;;;;;;18.67;2.65;;;;;;;;;;5021783;28;20034;-42
2021/11/16 13:10:00;;;;;;;22.02;3.60;;;;;;;;;;5014694;28;20037;-43
2021/11/16 13:12:37;;;;;;;15.73;3.63;;;;;;;;;;5019426;28;20068;-43
2021/11/16 13:15:08;;;;;;;17.45;3.35;;;;;;;;;;5030959;28;20026;-43
2021/11/16 13:17:59;;;;;;;19.00;3.40;;;;;;;;;;5030989;28;20018;-43
2021/11/16 13:20:34;;;;;;;22.85;3.50;;;;;;;;;;5024171;28;20356;-44
2021/11/16 13:23:04;;;;;;;24.30;3.30;;;;;;;;;;5030221;28;20071;-43
2021/11/16 13:25:38;;;;;;;15.80;3.03;;;;;;;;;;5030647;28;20018;-44
2021/11/16 13:28:06;;;;;;;16.08;2.80;;;;;;;;;;5025709;28;20033;-45
2021/11/16 13:30:33;;;;;;;17.15;2.95;;;;;;;;;;5022572;28;20053;-44
2021/11/16 13:33:20;;;;;;;19.73;2.92;;;;;;;;;;5020582;28;20018;-43
2021/11/16 13:36:06;;;;;;;14.93;2.70;;;;;;;;;;5028712;28;20104;-44
2021/11/16 13:39:12;;;;;;;30.85;4.13;;;;;;;;;;5025701;28;20036;-44
2021/11/16 13:41:43;;;;;;;35.85;5.00;;;;;;;;;;4994934;28;20091;-42
2021/11/16 13:44:11;;;;;;;29.92;4.00;;;;;;;;;;4996981;28;20096;-43
2021/11/16 13:46:41;;;;;;;30.77;4.00;;;;;;;;;;5009863;28;20034;-46
2021/11/16 13:49:10;;;;;;;38.92;4.82;;;;;;;;;;5022273;28;20037;-44
2021/11/16 13:51:37;;;;;;;33.38;3.67;;;;;;;;;;5019544;28;20100;-42
2021/11/16 13:54:05;;;;;;;30.40;4.80;;;;;;;;;;5042046;28;20038;-44
2021/11/16 13:56:32;;;;;;;28.98;4.45;;;;;;;;;;5020509;28;20033;-42
2021/11/16 13:58:59;;;;;;;30.23;4.97;;;;;;;;;;5041166;28;20033;-43
2021/11/16 14:01:34;;;;;;;39.67;5.07;;;;;;;;;;5015482;28;20036;-44
2021/11/16 14:04:08;;;;;;;30.98;4.68;;;;;;;;;;5045553;28;20437;-45
2021/11/16 14:06:35;;;;;;;35.40;4.70;;;;;;;;;;5019912;28;20025;-46
2021/11/16 14:09:12;;;;;;;48.88;4.90;;;;;;;;;;5025504;28;20037;-45
2021/11/16 14:11:49;;;;;;;50.80;6.30;;;;;;;;;;5021538;28;20020;-44
2021/11/16 14:14:21;;;;;;;43.58;5.15;;;;;;;;;;5027352;28;20033;-45
2021/11/16 14:16:48;;;;;;;;;;;;;;;;;;5029757;28;20018;-45
2021/11/16 14:19:16;;;;;;;36.60;4.95;;;;;;;;;;5029920;28;19915;-47
2021/11/16 14:21:45;;;;;;;35.13;5.00;;;;;;;;;;5020525;28;20058;-44
2021/11/16 14:24:13;;;;;;;71.40;8.77;;;;;;;;;;5023535;28;20485;-45
2021/11/16 14:26:44;;;;;;;68.47;7.07;;;;;;;;;;5030256;28;20027;-45
2021/11/16 14:29:16;;;;;;;61.35;7.35;;;;;;;;;;5024780;28;20032;-43
2021/11/16 14:31:43;;;;;;;68.22;7.75;;;;;;;;;;5022654;28;20037;-45
2021/11/16 14:34:15;;;;;;;65.72;6.82;;;;;;;;;;5030194;28;20037;-46
2021/11/16 14:36:47;;;;;;;65.03;7.47;;;;;;;;;;5030145;28;20071;-44
2021/11/16 14:39:13;;;;;;;;;;;;;;;;;;5023734;28;20033;-44
2021/11/16 14:41:42;;;;;;;43.50;6.35;;;;;;;;;;5028260;28;19971;-43
2021/11/16 14:44:10;;;;;;;46.08;6.75;;;;;;;;;;5047336;28;20029;-43
2021/11/16 14:46:38;;;;;;;54.55;7.07;;;;;;;;;;5033560;28;20072;-43
2021/11/16 14:49:07;;;;;;;53.55;6.22;;;;;;;;;;5034029;28;20099;-44
2021/11/16 14:51:45;;;;;;;45.17;6.63;;;;;;;;;;5032848;28;20079;-43
2021/11/16 14:54:13;;;;;;;36.65;5.88;;;;;;;;;;5023550;28;20033;-45
2021/11/16 14:56:44;;;;;;;53.53;6.00;;;;;;;;;;5034074;28;20389;-44
2021/11/16 14:59:13;;;;;;;45.33;6.65;;;;;;;;;;5028799;28;20124;-43
2021/11/16 15:01:41;;;;;;;44.08;6.10;;;;;;;;;;5033373;28;20052;-44
2021/11/16 15:04:10;;;;;;;47.17;6.43;;;;;;;;;;5026695;28;20440;-44
2021/11/16 15:06:39;;;;;;;30.33;4.60;;;;;;;;;;5033834;28;20495;-43
2021/11/16 15:09:15;;;;;;;40.35;5.22;;;;;;;;;;5032979;28;20049;-42